Koyo Maru No.8 — JL6213 — position and weather

sailwx.info

Track history (hours):
 
Tides and Currents Weather Stations Pressure Air Temp Water Temp Dewpoint Dewpoint Depression Visibility Wind Speed Wind Dir Waves Ship Positions

Koyo Maru No.8

Last reported at 2017-Nov-17 09:33 UTC. Time now 2017-Nov-17 21:13 UTC.
Position N 34°60' E 139°33'.

Length 70 m; draft 4 m.

Type: Tanker. MMSI: 431500123.

Date/timePositionNaut miles runAvg speedWind from/ knotsBaromVisibWave heightAir tempDewpointWater temp
2017-Nov-17 09:33N 34°60' E 139°33'012.0
2017-Nov-17 09:30N 34°60' E 139°33'612.3
2017-Nov-17 09:00N 35°04' E 139°39'612.2
2017-Nov-17 08:30N 35°09' E 139°44'612.6
2017-Nov-17 08:00N 35°14' E 139°46'612.6
2017-Nov-17 07:30N 35°20' E 139°43'611.7
2017-Nov-17 07:00N 35°26' E 139°44'5 9.7
2017-Nov-17 06:27N 35°30' E 139°47'1 3.1
2017-Nov-17 06:00N 35°32' E 139°45'0 0.0
2017-Nov-17 04:07N 35°32' E 139°45'0 1.2
2017-Nov-17 04:01N 35°32' E 139°46'3 6.4
2017-Nov-17 03:30N 35°29' E 139°48'1 0.3
2017-Nov-17 01:20N 35°29' E 139°49'0 0.0
2017-Nov-17 00:53N 35°29' E 139°49'0 0.0
2017-Nov-17 00:26N 35°29' E 139°49'0 0.0
2017-Nov-16 23:11N 35°29' E 139°49'0 0.0
2017-Nov-16 22:59N 35°29' E 139°49'0 0.0
2017-Nov-16 21:59N 35°29' E 139°49'0 0.0
2017-Nov-16 21:11N 35°29' E 139°49'0 0.0
2017-Nov-16 20:47N 35°29' E 139°49'0 0.0
2017-Nov-16 20:17N 35°29' E 139°49'0 0.0
2017-Nov-16 19:59N 35°29' E 139°49'0 0.0
2017-Nov-16 19:29N 35°29' E 139°49'0 0.0
2017-Nov-16 18:56N 35°29' E 139°49'0 0.0
2017-Nov-16 18:29N 35°29' E 139°49'0 0.0
2017-Nov-16 17:59N 35°29' E 139°49'0 0.0
2017-Nov-16 17:26N 35°29' E 139°49'0 0.0
2017-Nov-16 16:11N 35°29' E 139°49'0 0.0
2017-Nov-16 15:59N 35°29' E 139°49'0 0.0
2017-Nov-16 15:20N 35°29' E 139°49'0 0.0
2017-Nov-16 14:59N 35°29' E 139°49'0 0.0
2017-Nov-16 14:29N 35°29' E 139°49'0 0.0
2017-Nov-16 13:59N 35°29' E 139°49'0 0.0
2017-Nov-16 13:05N 35°29' E 139°49'0 0.0
2017-Nov-16 12:50N 35°29' E 139°49'0 0.0
2017-Nov-16 12:26N 35°29' E 139°49'0 0.0
2017-Nov-16 11:59N 35°29' E 139°49'0 0.0
2017-Nov-16 11:29N 35°29' E 139°49'0 0.0
2017-Nov-16 10:59N 35°29' E 139°49'0 0.0
2017-Nov-16 10:29N 35°29' E 139°49'0 0.0
2017-Nov-16 09:47N 35°29' E 139°49'0 0.0
2017-Nov-16 09:26N 35°29' E 139°49'0 0.0
2017-Nov-16 08:59N 35°29' E 139°49'0 0.1
2017-Nov-16 08:26N 35°29' E 139°49'0 0.0
2017-Nov-16 07:59N 35°29' E 139°49'0 0.0
2017-Nov-16 07:26N 35°29' E 139°49'0 0.0
2017-Nov-16 06:57N 35°29' E 139°49'3 6.5
2017-Nov-16 06:30N 35°27' E 139°46'4 8.9
2017-Nov-16 06:00N 35°28' E 139°40'1 1.0
2017-Nov-16 05:28N 35°28' E 139°40'0 0.0
2017-Nov-16 04:58N 35°28' E 139°40'0 0.0
2017-Nov-16 04:30N 35°28' E 139°40'1 2.7
2017-Nov-16 04:00N 35°27' E 139°41'510.3
2017-Nov-16 03:30N 35°28' E 139°47'611.6
2017-Nov-16 03:00N 35°30' E 139°54'6 1.5
2017-Nov-15 23:20N 35°29' E 140°01'5 1.7
2017-Nov-15 20:11N 35°29' E 139°54'210.3
2017-Nov-15 19:59N 35°28' E 139°52'511.0
2017-Nov-15 19:30N 35°25' E 139°47'510.5
2017-Nov-15 19:00N 35°20' E 139°45'510.5
2017-Nov-15 18:30N 35°15' E 139°47'510.9
2017-Nov-15 18:00N 35°10' E 139°46'510.4
2017-Nov-15 17:30N 35°05' E 139°43'611.2
2017-Nov-15 17:00N 35°02' E 139°38'611.5
2017-Nov-15 16:30N 34°58' E 139°32'227 6.5
2017-Nov-14 05:35N 34°07' E 135°03'111.2
2017-Nov-14 05:30N 34°08' E 135°04'510.2
2017-Nov-14 05:01N 34°09' E 135°10'2 0.7
2017-Nov-14 02:26N 34°09' E 135°12'1 1.7
2017-Nov-14 02:00N 34°09' E 135°11'2 3.9
2017-Nov-14 01:31N 34°09' E 135°09'0 0.1
2017-Nov-14 00:58N 34°09' E 135°09'0 0.0
2017-Nov-14 00:28N 34°09' E 135°09'0 0.1
2017-Nov-13 23:58N 34°09' E 135°09'0 0.0
2017-Nov-13 23:28N 34°09' E 135°09'0 0.1
2017-Nov-13 22:55N 34°09' E 135°09'0 0.0
2017-Nov-13 22:28N 34°09' E 135°09'0 0.0
2017-Nov-13 21:58N 34°09' E 135°09'  
2017-Nov-10 10:16N 35°00' E 139°30'411.3
2017-Nov-10 09:52N 35°03' E 139°35'411.7
2017-Nov-10 09:31N 35°05' E 139°39'611.8
2017-Nov-10 09:00N 35°10' E 139°44'611.3
2017-Nov-10 08:31N 35°15' E 139°46'612.0
2017-Nov-10 08:01N 35°20' E 139°42'611.1
2017-Nov-10 07:31N 35°25' E 139°44'510.9
2017-Nov-10 07:00N 35°30' E 139°47'2 0.8
2017-Nov-10 04:05N 35°32' E 139°46'0 0.9
2017-Nov-10 04:00N 35°32' E 139°46'3 5.6
2017-Nov-10 03:30N 35°30' E 139°49'5 9.2
2017-Nov-10 03:00N 35°30' E 139°54'3 0.1
2017-Nov-09 02:57N 35°30' E 139°58'3 6.5
2017-Nov-09 02:30N 35°29' E 139°55'4 8.9
2017-Nov-09 02:00N 35°27' E 139°50'510.1
2017-Nov-09 01:30N 35°26' E 139°43'3 5.4
2017-Nov-09 00:57N 35°28' E 139°40'0 0.0
2017-Nov-09 00:27N 35°28' E 139°40'0 0.0
2017-Nov-09 00:00N 35°28' E 139°40'0 0.1
2017-Nov-08 23:31N 35°28' E 139°40'2 4.8
2017-Nov-08 23:00N 35°26' E 139°43'0 0.8
2017-Nov-08 22:28N 35°26' E 139°43'0 0.0
2017-Nov-08 21:58N 35°26' E 139°43'0 0.0
2017-Nov-08 21:28N 35°26' E 139°43'0 0.0
2017-Nov-08 20:55N 35°26' E 139°43'0 0.1
2017-Nov-08 20:28N 35°26' E 139°43'0 0.1
2017-Nov-08 19:58N 35°26' E 139°43'0 0.7
2017-Nov-08 19:30N 35°26' E 139°43'510.5
2017-Nov-08 19:00N 35°21' E 139°43'611.5
2017-Nov-08 18:30N 35°16' E 139°46'510.8
2017-Nov-08 18:00N 35°10' E 139°46'  
Track history (hours):
 
Tides and Currents Weather Stations Pressure Air Temp Water Temp Dewpoint Dewpoint Depression Visibility Wind Speed Wind Dir Waves Ship Positions

Koyo Maru No.8

Last reported at 2017-Nov-17 09:33 UTC. Time now 2017-Nov-17 21:13 UTC.
Position N 34°60' E 139°33'.

Length 70 m; draft 4 m.

Type: Tanker. MMSI: 431500123.

Date/timePositionNaut miles runAvg speedWind from/ knotsBaromVisibWave heightAir tempDewpointWater temp
2017-Nov-17 09:33N 34°60' E 139°33'012.0
2017-Nov-17 09:30N 34°60' E 139°33'612.3
2017-Nov-17 09:00N 35°04' E 139°39'612.2
2017-Nov-17 08:30N 35°09' E 139°44'612.6
2017-Nov-17 08:00N 35°14' E 139°46'612.6
2017-Nov-17 07:30N 35°20' E 139°43'611.7
2017-Nov-17 07:00N 35°26' E 139°44'5 9.7
2017-Nov-17 06:27N 35°30' E 139°47'1 3.1
2017-Nov-17 06:00N 35°32' E 139°45'0 0.0
2017-Nov-17 04:07N 35°32' E 139°45'0 1.2
2017-Nov-17 04:01N 35°32' E 139°46'3 6.4
2017-Nov-17 03:30N 35°29' E 139°48'1 0.3
2017-Nov-17 01:20N 35°29' E 139°49'0 0.0
2017-Nov-17 00:53N 35°29' E 139°49'0 0.0
2017-Nov-17 00:26N 35°29' E 139°49'0 0.0
2017-Nov-16 23:11N 35°29' E 139°49'0 0.0
2017-Nov-16 22:59N 35°29' E 139°49'0 0.0
2017-Nov-16 21:59N 35°29' E 139°49'0 0.0
2017-Nov-16 21:11N 35°29' E 139°49'0 0.0
2017-Nov-16 20:47N 35°29' E 139°49'0 0.0
2017-Nov-16 20:17N 35°29' E 139°49'0 0.0
2017-Nov-16 19:59N 35°29' E 139°49'0 0.0
2017-Nov-16 19:29N 35°29' E 139°49'0 0.0
2017-Nov-16 18:56N 35°29' E 139°49'0 0.0
2017-Nov-16 18:29N 35°29' E 139°49'0 0.0
2017-Nov-16 17:59N 35°29' E 139°49'0 0.0
2017-Nov-16 17:26N 35°29' E 139°49'0 0.0
2017-Nov-16 16:11N 35°29' E 139°49'0 0.0
2017-Nov-16 15:59N 35°29' E 139°49'0 0.0
2017-Nov-16 15:20N 35°29' E 139°49'0 0.0
2017-Nov-16 14:59N 35°29' E 139°49'0 0.0
2017-Nov-16 14:29N 35°29' E 139°49'0 0.0
2017-Nov-16 13:59N 35°29' E 139°49'0 0.0
2017-Nov-16 13:05N 35°29' E 139°49'0 0.0
2017-Nov-16 12:50N 35°29' E 139°49'0 0.0
2017-Nov-16 12:26N 35°29' E 139°49'0 0.0
2017-Nov-16 11:59N 35°29' E 139°49'0 0.0
2017-Nov-16 11:29N 35°29' E 139°49'0 0.0
2017-Nov-16 10:59N 35°29' E 139°49'0 0.0
2017-Nov-16 10:29N 35°29' E 139°49'0 0.0
2017-Nov-16 09:47N 35°29' E 139°49'0 0.0
2017-Nov-16 09:26N 35°29' E 139°49'0 0.0
2017-Nov-16 08:59N 35°29' E 139°49'0 0.1
2017-Nov-16 08:26N 35°29' E 139°49'0 0.0
2017-Nov-16 07:59N 35°29' E 139°49'0 0.0
2017-Nov-16 07:26N 35°29' E 139°49'0 0.0
2017-Nov-16 06:57N 35°29' E 139°49'3 6.5
2017-Nov-16 06:30N 35°27' E 139°46'4 8.9
2017-Nov-16 06:00N 35°28' E 139°40'1 1.0
2017-Nov-16 05:28N 35°28' E 139°40'0 0.0
2017-Nov-16 04:58N 35°28' E 139°40'0 0.0
2017-Nov-16 04:30N 35°28' E 139°40'1 2.7
2017-Nov-16 04:00N 35°27' E 139°41'510.3
2017-Nov-16 03:30N 35°28' E 139°47'611.6
2017-Nov-16 03:00N 35°30' E 139°54'6 1.5
2017-Nov-15 23:20N 35°29' E 140°01'5 1.7
2017-Nov-15 20:11N 35°29' E 139°54'210.3
2017-Nov-15 19:59N 35°28' E 139°52'511.0
2017-Nov-15 19:30N 35°25' E 139°47'510.5
2017-Nov-15 19:00N 35°20' E 139°45'510.5
2017-Nov-15 18:30N 35°15' E 139°47'510.9
2017-Nov-15 18:00N 35°10' E 139°46'510.4
2017-Nov-15 17:30N 35°05' E 139°43'611.2
2017-Nov-15 17:00N 35°02' E 139°38'611.5
2017-Nov-15 16:30N 34°58' E 139°32'227 6.5
2017-Nov-14 05:35N 34°07' E 135°03'111.2
2017-Nov-14 05:30N 34°08' E 135°04'510.2
2017-Nov-14 05:01N 34°09' E 135°10'2 0.7
2017-Nov-14 02:26N 34°09' E 135°12'1 1.7
2017-Nov-14 02:00N 34°09' E 135°11'2 3.9
2017-Nov-14 01:31N 34°09' E 135°09'0 0.1
2017-Nov-14 00:58N 34°09' E 135°09'0 0.0
2017-Nov-14 00:28N 34°09' E 135°09'0 0.1
2017-Nov-13 23:58N 34°09' E 135°09'0 0.0
2017-Nov-13 23:28N 34°09' E 135°09'0 0.1
2017-Nov-13 22:55N 34°09' E 135°09'0 0.0
2017-Nov-13 22:28N 34°09' E 135°09'0 0.0
2017-Nov-13 21:58N 34°09' E 135°09'  
2017-Nov-10 10:16N 35°00' E 139°30'411.3
2017-Nov-10 09:52N 35°03' E 139°35'411.7
2017-Nov-10 09:31N 35°05' E 139°39'611.8
2017-Nov-10 09:00N 35°10' E 139°44'611.3
2017-Nov-10 08:31N 35°15' E 139°46'612.0
2017-Nov-10 08:01N 35°20' E 139°42'611.1
2017-Nov-10 07:31N 35°25' E 139°44'510.9
2017-Nov-10 07:00N 35°30' E 139°47'2 0.8
2017-Nov-10 04:05N 35°32' E 139°46'0 0.9
2017-Nov-10 04:00N 35°32' E 139°46'3 5.6
2017-Nov-10 03:30N 35°30' E 139°49'5 9.2
2017-Nov-10 03:00N 35°30' E 139°54'3 0.1
2017-Nov-09 02:57N 35°30' E 139°58'3 6.5
2017-Nov-09 02:30N 35°29' E 139°55'4 8.9
2017-Nov-09 02:00N 35°27' E 139°50'510.1
2017-Nov-09 01:30N 35°26' E 139°43'3 5.4
2017-Nov-09 00:57N 35°28' E 139°40'0 0.0
2017-Nov-09 00:27N 35°28' E 139°40'0 0.0
2017-Nov-09 00:00N 35°28' E 139°40'0 0.1
2017-Nov-08 23:31N 35°28' E 139°40'2 4.8
2017-Nov-08 23:00N 35°26' E 139°43'0 0.8
2017-Nov-08 22:28N 35°26' E 139°43'0 0.0
2017-Nov-08 21:58N 35°26' E 139°43'0 0.0
2017-Nov-08 21:28N 35°26' E 139°43'0 0.0
2017-Nov-08 20:55N 35°26' E 139°43'0 0.1
2017-Nov-08 20:28N 35°26' E 139°43'0 0.1
2017-Nov-08 19:58N 35°26' E 139°43'0 0.7
2017-Nov-08 19:30N 35°26' E 139°43'510.5
2017-Nov-08 19:00N 35°21' E 139°43'611.5
2017-Nov-08 18:30N 35°16' E 139°46'510.8
2017-Nov-08 18:00N 35°10' E 139°46'  

Dump ship's entire track history